sensor_id;sensor_type;location;lat;lon;timestamp;temperature;humidity
23713;DHT22;12035;49.978;8.298;2023-04-01T00:01:14;13.60;66.90
23713;DHT22;12035;49.978;8.298;2023-04-01T00:06:15;13.60;66.90
23713;DHT22;12035;49.978;8.298;2023-04-01T00:11:13;13.60;66.70
23713;DHT22;12035;49.978;8.298;2023-04-01T00:16:12;13.60;66.70
23713;DHT22;12035;49.978;8.298;2023-04-01T00:21:10;13.60;66.70
23713;DHT22;12035;49.978;8.298;2023-04-01T00:26:07;13.60;67.30
23713;DHT22;12035;49.978;8.298;2023-04-01T00:31:05;13.60;66.40
23713;DHT22;12035;49.978;8.298;2023-04-01T00:36:08;13.60;66.40
23713;DHT22;12035;49.978;8.298;2023-04-01T00:41:06;13.60;66.30
23713;DHT22;12035;49.978;8.298;2023-04-01T00:46:04;13.60;66.40
23713;DHT22;12035;49.978;8.298;2023-04-01T00:51:04;13.60;66.50
23713;DHT22;12035;49.978;8.298;2023-04-01T00:56:12;13.50;66.50
23713;DHT22;12035;49.978;8.298;2023-04-01T01:01:11;13.60;66.40
23713;DHT22;12035;49.978;8.298;2023-04-01T01:06:17;13.50;66.40
23713;DHT22;12035;49.978;8.298;2023-04-01T01:11:25;13.50;66.30
23713;DHT22;12035;49.978;8.298;2023-04-01T01:16:28;13.50;66.40
23713;DHT22;12035;49.978;8.298;2023-04-01T01:21:42;13.40;66.30
23713;DHT22;12035;49.978;8.298;2023-04-01T01:27:02;13.50;66.40
23713;DHT22;12035;49.978;8.298;2023-04-01T01:32:10;13.40;66.30
23713;DHT22;12035;49.978;8.298;2023-04-01T01:37:17;13.40;66.40
23713;DHT22;12035;49.978;8.298;2023-04-01T01:42:18;13.40;66.50
23713;DHT22;12035;49.978;8.298;2023-04-01T01:47:17;13.40;66.60
23713;DHT22;12035;49.978;8.298;2023-04-01T01:52:17;13.30;66.50
23713;DHT22;12035;49.978;8.298;2023-04-01T01:57:15;13.30;66.60
23713;DHT22;12035;49.978;8.298;2023-04-01T02:02:13;13.30;66.60
23713;DHT22;12035;49.978;8.298;2023-04-01T02:07:18;13.30;66.70
23713;DHT22;12035;49.978;8.298;2023-04-01T02:12:18;13.30;66.70
23713;DHT22;12035;49.978;8.298;2023-04-01T02:17:18;13.30;66.60
23713;DHT22;12035;49.978;8.298;2023-04-01T02:22:21;13.30;66.60
23713;DHT22;12035;49.978;8.298;2023-04-01T02:27:20;13.30;66.80
23713;DHT22;12035;49.978;8.298;2023-04-01T02:32:18;13.30;66.80
23713;DHT22;12035;49.978;8.298;2023-04-01T02:37:18;13.30;66.90
23713;DHT22;12035;49.978;8.298;2023-04-01T02:42:15;13.20;67.00
23713;DHT22;12035;49.978;8.298;2023-04-01T02:47:12;13.20;67.20
23713;DHT22;12035;49.978;8.298;2023-04-01T02:52:09;13.20;67.30
23713;DHT22;12035;49.978;8.298;2023-04-01T02:57:08;13.20;67.50
23713;DHT22;12035;49.978;8.298;2023-04-01T03:02:05;13.20;67.70
23713;DHT22;12035;49.978;8.298;2023-04-01T03:07:02;13.10;67.60
23713;DHT22;12035;49.978;8.298;2023-04-01T03:11:59;13.10;67.60
23713;DHT22;12035;49.978;8.298;2023-04-01T03:16:57;13.10;67.80
23713;DHT22;12035;49.978;8.298;2023-04-01T03:21:55;13.10;67.90
23713;DHT22;12035;49.978;8.298;2023-04-01T03:26:52;13.10;67.90
23713;DHT22;12035;49.978;8.298;2023-04-01T03:31:49;13.10;67.90
23713;DHT22;12035;49.978;8.298;2023-04-01T03:36:47;13.10;68.10
23713;DHT22;12035;49.978;8.298;2023-04-01T03:41:44;13.10;68.10
23713;DHT22;12035;49.978;8.298;2023-04-01T03:46:41;13.10;68.20
23713;DHT22;12035;49.978;8.298;2023-04-01T03:51:39;13.10;68.20
23713;DHT22;12035;49.978;8.298;2023-04-01T03:56:38;13.10;68.20
23713;DHT22;12035;49.978;8.298;2023-04-01T04:01:35;13.10;68.30
23713;DHT22;12035;49.978;8.298;2023-04-01T04:06:33;13.10;68.30
23713;DHT22;12035;49.978;8.298;2023-04-01T04:11:30;13.10;68.40
23713;DHT22;12035;49.978;8.298;2023-04-01T04:16:29;13.20;68.40
23713;DHT22;12035;49.978;8.298;2023-04-01T04:21:26;13.20;68.30
23713;DHT22;12035;49.978;8.298;2023-04-01T04:26:24;13.20;68.30
23713;DHT22;12035;49.978;8.298;2023-04-01T04:31:22;13.20;68.30
23713;DHT22;12035;49.978;8.298;2023-04-01T04:36:21;13.20;68.30
23713;DHT22;12035;49.978;8.298;2023-04-01T04:41:19;13.10;68.40
23713;DHT22;12035;49.978;8.298;2023-04-01T04:46:17;13.10;68.60
23713;DHT22;12035;49.978;8.298;2023-04-01T04:51:15;13.20;68.90
23713;DHT22;12035;49.978;8.298;2023-04-01T04:56:17;13.10;69.00
23713;DHT22;12035;49.978;8.298;2023-04-01T05:01:16;13.10;69.20
23713;DHT22;12035;49.978;8.298;2023-04-01T05:06:14;13.00;69.20
23713;DHT22;12035;49.978;8.298;2023-04-01T05:11:16;13.00;69.20
23713;DHT22;12035;49.978;8.298;2023-04-01T05:16:16;13.00;69.40
23713;DHT22;12035;49.978;8.298;2023-04-01T05:21:14;13.00;70.20
23713;DHT22;12035;49.978;8.298;2023-04-01T05:26:14;13.00;69.40
23713;DHT22;12035;49.978;8.298;2023-04-01T05:31:11;13.00;69.30
23713;DHT22;12035;49.978;8.298;2023-04-01T05:36:10;12.90;69.00
23713;DHT22;12035;49.978;8.298;2023-04-01T05:41:09;12.90;69.10
23713;DHT22;12035;49.978;8.298;2023-04-01T05:46:07;13.00;68.80
23713;DHT22;12035;49.978;8.298;2023-04-01T05:51:05;13.00;68.70
23713;DHT22;12035;49.978;8.298;2023-04-01T05:56:02;13.00;68.70
23713;DHT22;12035;49.978;8.298;2023-04-01T06:01:02;13.00;68.70
23713;DHT22;12035;49.978;8.298;2023-04-01T06:06:00;12.90;68.70
23713;DHT22;12035;49.978;8.298;2023-04-01T06:11:11;12.90;68.70
23713;DHT22;12035;49.978;8.298;2023-04-01T06:16:20;12.90;68.90
23713;DHT22;12035;49.978;8.298;2023-04-01T06:21:34;12.90;68.90
23713;DHT22;12035;49.978;8.298;2023-04-01T06:26:42;13.00;69.10
23713;DHT22;12035;49.978;8.298;2023-04-01T06:31:56;13.00;69.00
23713;DHT22;12035;49.978;8.298;2023-04-01T06:37:19;13.00;69.00
23713;DHT22;12035;49.978;8.298;2023-04-01T06:42:32;13.00;69.10
23713;DHT22;12035;49.978;8.298;2023-04-01T06:47:45;13.00;69.20
23713;DHT22;12035;49.978;8.298;2023-04-01T06:52:55;13.10;69.40
23713;DHT22;12035;49.978;8.298;2023-04-01T06:57:58;13.10;69.70
23713;DHT22;12035;49.978;8.298;2023-04-01T07:03:04;13.10;69.90
23713;DHT22;12035;49.978;8.298;2023-04-01T07:08:11;13.10;70.30
23713;DHT22;12035;49.978;8.298;2023-04-01T07:13:15;13.10;70.50
23713;DHT22;12035;49.978;8.298;2023-04-01T07:18:21;13.20;70.80
23713;DHT22;12035;49.978;8.298;2023-04-01T07:23:24;13.30;70.80
23713;DHT22;12035;49.978;8.298;2023-04-01T07:28:22;13.30;70.70
23713;DHT22;12035;49.978;8.298;2023-04-01T07:33:24;13.40;70.60
23713;DHT22;12035;49.978;8.298;2023-04-01T07:38:34;13.50;70.50
23713;DHT22;12035;49.978;8.298;2023-04-01T07:43:44;13.50;70.40
23713;DHT22;12035;49.978;8.298;2023-04-01T07:48:54;13.60;70.40
23713;DHT22;12035;49.978;8.298;2023-04-01T07:54:02;13.70;70.30
23713;DHT22;12035;49.978;8.298;2023-04-01T07:59:07;13.80;70.10
23713;DHT22;12035;49.978;8.298;2023-04-01T08:04:33;14.00;69.70
23713;DHT22;12035;49.978;8.298;2023-04-01T08:09:44;14.10;69.60
23713;DHT22;12035;49.978;8.298;2023-04-01T08:14:53;14.10;70.00
23713;DHT22;12035;49.978;8.298;2023-04-01T08:20:07;14.10;70.40
23713;DHT22;12035;49.978;8.298;2023-04-01T08:25:16;14.10;70.90
23713;DHT22;12035;49.978;8.298;2023-04-01T08:30:18;14.00;70.90
23713;DHT22;12035;49.978;8.298;2023-04-01T08:35:26;14.00;71.30
23713;DHT22;12035;49.978;8.298;2023-04-01T08:40:41;13.90;71.70
23713;DHT22;12035;49.978;8.298;2023-04-01T08:46:00;13.90;72.20
23713;DHT22;12035;49.978;8.298;2023-04-01T08:57:01;13.90;73.10
23713;DHT22;12035;49.978;8.298;2023-04-01T09:02:19;13.90;73.40
23713;DHT22;12035;49.978;8.298;2023-04-01T09:07:40;13.90;74.00
23713;DHT22;12035;49.978;8.298;2023-04-01T09:12:54;14.00;74.50
23713;DHT22;12035;49.978;8.298;2023-04-01T09:18:12;14.00;74.90
23713;DHT22;12035;49.978;8.298;2023-04-01T09:28:55;14.00;75.50
23713;DHT22;12035;49.978;8.298;2023-04-01T09:34:19;14.00;75.90
23713;DHT22;12035;49.978;8.298;2023-04-01T09:39:36;14.00;76.30
23713;DHT22;12035;49.978;8.298;2023-04-01T09:44:36;14.00;76.30
23713;DHT22;12035;49.978;8.298;2023-04-01T09:49:46;14.00;76.80
23713;DHT22;12035;49.978;8.298;2023-04-01T09:55:04;14.00;77.40
23713;DHT22;12035;49.978;8.298;2023-04-01T10:00:42;14.10;77.60
23713;DHT22;12035;49.978;8.298;2023-04-01T10:11:59;14.30;77.80
23713;DHT22;12035;49.978;8.298;2023-04-01T10:17:52;14.30;77.90
23713;DHT22;12035;49.978;8.298;2023-04-01T10:35:03;14.50;77.40
23713;DHT22;12035;49.978;8.298;2023-04-01T10:40:38;14.50;77.50
23713;DHT22;12035;49.978;8.298;2023-04-01T10:46:22;14.50;78.20
23713;DHT22;12035;49.978;8.298;2023-04-01T10:51:57;14.60;78.20
23713;DHT22;12035;49.978;8.298;2023-04-01T11:09:04;14.80;77.80
23713;DHT22;12035;49.978;8.298;2023-04-01T11:14:37;14.90;77.80
23713;DHT22;12035;49.978;8.298;2023-04-01T11:25:55;15.00;77.20
23713;DHT22;12035;49.978;8.298;2023-04-01T11:31:04;15.10;76.70
23713;DHT22;12035;49.978;8.298;2023-04-01T11:36:23;15.20;76.30
23713;DHT22;12035;49.978;8.298;2023-04-01T11:41:32;15.20;76.70
23713;DHT22;12035;49.978;8.298;2023-04-01T11:46:37;15.20;76.20
23713;DHT22;12035;49.978;8.298;2023-04-01T11:51:52;15.20;76.60
23713;DHT22;12035;49.978;8.298;2023-04-01T11:57:15;15.20;76.80
23713;DHT22;12035;49.978;8.298;2023-04-01T12:02:24;15.20;76.40
23713;DHT22;12035;49.978;8.298;2023-04-01T12:07:34;15.20;75.70
23713;DHT22;12035;49.978;8.298;2023-04-01T12:12:48;15.20;76.10
23713;DHT22;12035;49.978;8.298;2023-04-01T12:17:59;15.20;77.10
23713;DHT22;12035;49.978;8.298;2023-04-01T12:23:16;15.10;77.20
23713;DHT22;12035;49.978;8.298;2023-04-01T12:28:37;15.10;77.60
23713;DHT22;12035;49.978;8.298;2023-04-01T12:33:52;15.10;78.20
23713;DHT22;12035;49.978;8.298;2023-04-01T12:39:21;15.10;78.50
23713;DHT22;12035;49.978;8.298;2023-04-01T12:44:37;15.20;78.40
23713;DHT22;12035;49.978;8.298;2023-04-01T12:49:57;15.20;78.10
23713;DHT22;12035;49.978;8.298;2023-04-01T12:55:35;15.20;77.80
23713;DHT22;12035;49.978;8.298;2023-04-01T13:00:50;15.20;77.40
23713;DHT22;12035;49.978;8.298;2023-04-01T13:06:40;15.10;77.50
23713;DHT22;12035;49.978;8.298;2023-04-01T13:12:20;15.00;77.80
23713;DHT22;12035;49.978;8.298;2023-04-01T13:17:31;15.00;78.30
23713;DHT22;12035;49.978;8.298;2023-04-01T13:22:45;15.10;78.60
23713;DHT22;12035;49.978;8.298;2023-04-01T13:27:50;15.10;78.60
23713;DHT22;12035;49.978;8.298;2023-04-01T13:32:57;15.10;78.30
23713;DHT22;12035;49.978;8.298;2023-04-01T13:38:16;15.10;77.50
23713;DHT22;12035;49.978;8.298;2023-04-01T13:43:32;15.10;77.80
23713;DHT22;12035;49.978;8.298;2023-04-01T13:48:55;15.10;78.30
23713;DHT22;12035;49.978;8.298;2023-04-01T13:54:26;15.10;77.80
23713;DHT22;12035;49.978;8.298;2023-04-01T14:00:00;15.20;78.10
23713;DHT22;12035;49.978;8.298;2023-04-01T14:05:51;15.20;77.90
23713;DHT22;12035;49.978;8.298;2023-04-01T14:11:11;15.20;77.70
23713;DHT22;12035;49.978;8.298;2023-04-01T14:16:23;15.20;77.10
23713;DHT22;12035;49.978;8.298;2023-04-01T14:21:42;15.30;76.60
23713;DHT22;12035;49.978;8.298;2023-04-01T14:27:12;15.30;76.30
23713;DHT22;12035;49.978;8.298;2023-04-01T14:32:28;15.40;75.80
23713;DHT22;12035;49.978;8.298;2023-04-01T14:38:06;15.40;75.20
23713;DHT22;12035;49.978;8.298;2023-04-01T14:48:53;15.40;75.00
23713;DHT22;12035;49.978;8.298;2023-04-01T14:54:00;15.40;75.00
23713;DHT22;12035;49.978;8.298;2023-04-01T14:59:01;15.40;74.60
23713;DHT22;12035;49.978;8.298;2023-04-01T15:04:05;15.40;74.90
23713;DHT22;12035;49.978;8.298;2023-04-01T15:09:19;15.40;74.60
23713;DHT22;12035;49.978;8.298;2023-04-01T15:14:37;15.40;74.20
23713;DHT22;12035;49.978;8.298;2023-04-01T15:19:48;15.40;73.90
23713;DHT22;12035;49.978;8.298;2023-04-01T15:25:05;15.50;74.00
23713;DHT22;12035;49.978;8.298;2023-04-01T15:30:30;15.60;73.80
23713;DHT22;12035;49.978;8.298;2023-04-01T15:35:39;15.70;73.20
23713;DHT22;12035;49.978;8.298;2023-04-01T15:40:45;15.70;73.00
23713;DHT22;12035;49.978;8.298;2023-04-01T15:45:54;15.70;72.70
23713;DHT22;12035;49.978;8.298;2023-04-01T15:51:02;15.80;72.60
23713;DHT22;12035;49.978;8.298;2023-04-01T15:56:25;15.80;72.60
23713;DHT22;12035;49.978;8.298;2023-04-01T16:01:34;15.70;73.00
23713;DHT22;12035;49.978;8.298;2023-04-01T16:06:53;15.70;73.50
23713;DHT22;12035;49.978;8.298;2023-04-01T16:12:06;15.60;74.50
23713;DHT22;12035;49.978;8.298;2023-04-01T16:17:22;15.50;74.60
23713;DHT22;12035;49.978;8.298;2023-04-01T16:22:31;15.40;74.70
23713;DHT22;12035;49.978;8.298;2023-04-01T16:27:36;15.40;74.80
23713;DHT22;12035;49.978;8.298;2023-04-01T16:32:38;15.40;75.00
23713;DHT22;12035;49.978;8.298;2023-04-01T16:37:43;15.30;74.30
23713;DHT22;12035;49.978;8.298;2023-04-01T16:42:49;15.30;74.50
23713;DHT22;12035;49.978;8.298;2023-04-01T16:47:49;15.20;74.50
23713;DHT22;12035;49.978;8.298;2023-04-01T16:52:58;15.20;74.20
23713;DHT22;12035;49.978;8.298;2023-04-01T16:58:00;15.10;74.10
23713;DHT22;12035;49.978;8.298;2023-04-01T17:03:03;15.00;74.20
23713;DHT22;12035;49.978;8.298;2023-04-01T17:08:09;15.00;74.60
23713;DHT22;12035;49.978;8.298;2023-04-01T17:13:34;14.90;74.30
23713;DHT22;12035;49.978;8.298;2023-04-01T17:18:37;14.90;74.00
23713;DHT22;12035;49.978;8.298;2023-04-01T17:23:45;14.80;74.00
23713;DHT22;12035;49.978;8.298;2023-04-01T17:28:52;14.80;74.10
23713;DHT22;12035;49.978;8.298;2023-04-01T17:34:03;14.80;74.10
23713;DHT22;12035;49.978;8.298;2023-04-01T17:39:26;14.70;74.10
23713;DHT22;12035;49.978;8.298;2023-04-01T17:44:40;14.70;74.30
23713;DHT22;12035;49.978;8.298;2023-04-01T17:49:49;14.70;73.90
23713;DHT22;12035;49.978;8.298;2023-04-01T17:54:53;14.60;74.10
23713;DHT22;12035;49.978;8.298;2023-04-01T18:00:22;14.60;74.20
23713;DHT22;12035;49.978;8.298;2023-04-01T18:05:33;14.60;74.10
23713;DHT22;12035;49.978;8.298;2023-04-01T18:10:40;14.50;74.00
23713;DHT22;12035;49.978;8.298;2023-04-01T18:15:45;14.50;73.80
23713;DHT22;12035;49.978;8.298;2023-04-01T18:20:52;14.40;73.60
23713;DHT22;12035;49.978;8.298;2023-04-01T18:25:54;14.40;73.90
23713;DHT22;12035;49.978;8.298;2023-04-01T18:31:07;14.30;73.90
23713;DHT22;12035;49.978;8.298;2023-04-01T18:36:18;14.30;74.00
23713;DHT22;12035;49.978;8.298;2023-04-01T18:41:22;14.30;74.10
23713;DHT22;12035;49.978;8.298;2023-04-01T18:46:31;14.20;74.00
23713;DHT22;12035;49.978;8.298;2023-04-01T18:51:38;14.20;74.10
23713;DHT22;12035;49.978;8.298;2023-04-01T18:56:40;14.10;74.10
23713;DHT22;12035;49.978;8.298;2023-04-01T19:01:43;14.10;74.00
23713;DHT22;12035;49.978;8.298;2023-04-01T19:06:49;14.00;74.20
23713;DHT22;12035;49.978;8.298;2023-04-01T19:12:27;14.00;74.20
23713;DHT22;12035;49.978;8.298;2023-04-01T19:17:47;13.90;74.30
23713;DHT22;12035;49.978;8.298;2023-04-01T19:23:06;13.90;74.30
23713;DHT22;12035;49.978;8.298;2023-04-01T19:28:38;13.80;74.30
23713;DHT22;12035;49.978;8.298;2023-04-01T19:33:51;13.80;74.50
23713;DHT22;12035;49.978;8.298;2023-04-01T19:39:00;13.80;74.70
23713;DHT22;12035;49.978;8.298;2023-04-01T19:44:23;13.70;74.80
23713;DHT22;12035;49.978;8.298;2023-04-01T19:49:37;13.60;74.90
23713;DHT22;12035;49.978;8.298;2023-04-01T19:54:43;13.60;75.00
23713;DHT22;12035;49.978;8.298;2023-04-01T19:59:48;13.60;75.00
23713;DHT22;12035;49.978;8.298;2023-04-01T20:04:51;13.60;75.00
23713;DHT22;12035;49.978;8.298;2023-04-01T20:09:54;13.50;75.10
23713;DHT22;12035;49.978;8.298;2023-04-01T20:14:57;13.50;75.10
23713;DHT22;12035;49.978;8.298;2023-04-01T20:19:59;13.40;75.20
23713;DHT22;12035;49.978;8.298;2023-04-01T20:24:59;13.40;75.40
23713;DHT22;12035;49.978;8.298;2023-04-01T20:30:24;13.30;75.40
23713;DHT22;12035;49.978;8.298;2023-04-01T20:35:43;13.30;75.70
23713;DHT22;12035;49.978;8.298;2023-04-01T20:40:47;13.30;75.70
23713;DHT22;12035;49.978;8.298;2023-04-01T20:45:54;13.30;75.70
23713;DHT22;12035;49.978;8.298;2023-04-01T20:50:57;13.20;75.70
23713;DHT22;12035;49.978;8.298;2023-04-01T20:56:17;13.20;75.90
23713;DHT22;12035;49.978;8.298;2023-04-01T21:01:39;13.20;76.10
23713;DHT22;12035;49.978;8.298;2023-04-01T21:06:54;13.20;76.20
23713;DHT22;12035;49.978;8.298;2023-04-01T21:12:06;13.20;76.40
23713;DHT22;12035;49.978;8.298;2023-04-01T21:17:20;13.20;76.40
23713;DHT22;12035;49.978;8.298;2023-04-01T21:22:47;13.30;76.60
23713;DHT22;12035;49.978;8.298;2023-04-01T21:28:20;13.20;76.80
23713;DHT22;12035;49.978;8.298;2023-04-01T21:33:37;13.20;76.80
23713;DHT22;12035;49.978;8.298;2023-04-01T21:38:51;13.20;76.90
23713;DHT22;12035;49.978;8.298;2023-04-01T21:44:09;13.20;77.00
23713;DHT22;12035;49.978;8.298;2023-04-01T21:49:40;13.20;77.20
23713;DHT22;12035;49.978;8.298;2023-04-01T21:55:03;13.20;77.40
23713;DHT22;12035;49.978;8.298;2023-04-01T22:00:32;13.20;77.50
23713;DHT22;12035;49.978;8.298;2023-04-01T22:05:32;13.20;77.40
23713;DHT22;12035;49.978;8.298;2023-04-01T22:10:39;13.20;77.30
23713;DHT22;12035;49.978;8.298;2023-04-01T22:15:52;13.10;77.50
23713;DHT22;12035;49.978;8.298;2023-04-01T22:20:59;13.10;78.30
23713;DHT22;12035;49.978;8.298;2023-04-01T22:26:09;13.10;77.60
23713;DHT22;12035;49.978;8.298;2023-04-01T22:31:12;13.10;77.80
23713;DHT22;12035;49.978;8.298;2023-04-01T22:36:17;13.10;77.80
23713;DHT22;12035;49.978;8.298;2023-04-01T22:41:23;13.10;78.10
23713;DHT22;12035;49.978;8.298;2023-04-01T22:46:44;13.10;78.20
23713;DHT22;12035;49.978;8.298;2023-04-01T22:51:52;13.10;78.60
23713;DHT22;12035;49.978;8.298;2023-04-01T22:56:55;13.10;78.40
23713;DHT22;12035;49.978;8.298;2023-04-01T23:01:57;13.10;78.50
23713;DHT22;12035;49.978;8.298;2023-04-01T23:06:59;13.10;78.30
23713;DHT22;12035;49.978;8.298;2023-04-01T23:12:02;13.10;78.20
23713;DHT22;12035;49.978;8.298;2023-04-01T23:17:10;13.20;78.10
23713;DHT22;12035;49.978;8.298;2023-04-01T23:22:21;13.20;78.00
23713;DHT22;12035;49.978;8.298;2023-04-01T23:27:29;13.30;77.90
23713;DHT22;12035;49.978;8.298;2023-04-01T23:32:30;13.20;77.60
23713;DHT22;12035;49.978;8.298;2023-04-01T23:37:27;13.20;77.40
23713;DHT22;12035;49.978;8.298;2023-04-01T23:42:28;13.20;77.20
23713;DHT22;12035;49.978;8.298;2023-04-01T23:47:30;13.20;77.20
23713;DHT22;12035;49.978;8.298;2023-04-01T23:52:31;13.20;77.20
23713;DHT22;12035;49.978;8.298;2023-04-01T23:57:34;13.20;77.10
